Time;durP1;ratioP1;P1;durP2;ratioP2;P2;SDS_P1;SDS_P2;PMS_P1;PMS_P2;Temp;Humidity;BMP_temperature;BMP_pressure;BME280_temperature;BME280_humidity;BME280_pressure;Samples;Min_cycle;Max_cycle;Signal;HPM_P1;HPM_P2
2023/07/12 00:00:15;;;;;;;8.45;7.35;;;;;;;22.63;74.35;99721.47;5033478;28;20221;-83
2023/07/12 00:02:42;;;;;;;7.88;6.95;;;;;;;22.57;74.21;99705.16;5032274;28;20202;-83
2023/07/12 00:05:09;;;;;;;7.60;6.80;;;;;;;22.51;73.83;99720.34;5033396;28;20206;-83
2023/07/12 00:07:36;;;;;;;9.32;6.63;;;;;;;22.51;72.42;99717.63;5030617;28;20210;-83
2023/07/12 00:10:03;;;;;;;7.43;5.90;;;;;;;22.59;70.38;99711.19;5027066;28;20222;-84
2023/07/12 00:12:31;;;;;;;7.05;6.38;;;;;;;22.71;68.57;99701.47;5031275;28;20678;-83
2023/07/12 00:14:57;;;;;;;6.78;5.75;;;;;;;22.86;67.20;99704.94;5032222;28;20229;-84
2023/07/12 00:17:23;;;;;;;6.88;6.18;;;;;;;23.03;65.70;99689.19;5032354;28;20202;-83
2023/07/12 00:19:50;;;;;;;6.70;5.90;;;;;;;23.19;64.74;99680.69;5031122;28;20230;-83
2023/07/12 00:22:17;;;;;;;8.50;6.63;;;;;;;23.32;63.63;99677.19;5030239;28;20205;-84
2023/07/12 00:24:43;;;;;;;6.47;5.80;;;;;;;23.43;62.90;99671.19;5031968;28;20198;-84
2023/07/12 00:27:10;;;;;;;6.43;5.78;;;;;;;23.56;62.10;99664.97;5031395;28;20216;-83
2023/07/12 00:29:38;;;;;;;10.85;6.68;;;;;;;23.64;61.85;99681.94;5030523;28;20226;-83
2023/07/12 00:32:05;;;;;;;6.88;6.18;;;;;;;23.75;61.02;99691.38;5031663;28;20206;-82
2023/07/12 00:34:31;;;;;;;7.18;6.13;;;;;;;23.86;60.37;99688.03;5030495;28;20233;-83
2023/07/12 00:36:58;;;;;;;7.18;5.75;;;;;;;23.96;60.20;99691.22;5030794;28;20209;-83
2023/07/12 00:39:26;;;;;;;7.72;6.18;;;;;;;24.04;59.65;99682.84;5030646;28;20221;-84
2023/07/12 00:42:04;;;;;;;6.80;6.05;;;;;;;24.12;59.56;99689.97;5031898;28;20213;-83
2023/07/12 00:44:34;;;;;;;6.80;6.10;;;;;;;24.20;59.11;99698.75;5026524;28;20206;-83
2023/07/12 00:47:02;;;;;;;7.00;6.30;;;;;;;24.25;58.93;99698.16;5031780;28;20201;-83
2023/07/12 00:49:28;;;;;;;6.55;5.95;;;;;;;24.28;59.13;99705.09;5030859;28;20221;-83
2023/07/12 00:52:00;;;;;;;6.82;6.10;;;;;;;24.31;58.86;99704.66;5027672;28;20209;-83
2023/07/12 00:54:49;;;;;;;6.57;5.78;;;;;;;24.33;58.52;99708.03;5029845;28;20217;-83
2023/07/12 00:57:15;;;;;;;5.93;5.38;;;;;;;24.35;58.76;99700.50;5031335;28;20202;-83
2023/07/12 00:59:42;;;;;;;6.38;5.75;;;;;;;24.36;58.17;99705.72;5029397;28;20230;-82
2023/07/12 01:02:13;;;;;;;6.82;5.63;;;;;;;24.40;57.56;99717.84;5028140;28;20212;-83
2023/07/12 01:04:43;;;;;;;6.30;5.65;;;;;;;24.47;56.96;99736.91;5024372;28;20222;-82
2023/07/12 01:07:12;;;;;;;6.03;5.20;;;;;;;24.55;56.09;99739.41;5025271;28;20198;-82
2023/07/12 01:09:39;;;;;;;8.32;5.40;;;;;;;24.63;55.27;99754.72;5032079;28;20328;-83
2023/07/12 01:12:08;;;;;;;5.88;5.00;;;;;;;24.69;54.72;99740.25;5032110;28;20209;-84
2023/07/12 01:14:34;;;;;;;6.55;5.20;;;;;;;24.77;54.21;99738.16;5028816;28;20258;-83
2023/07/12 01:17:03;;;;;;;7.80;5.57;;;;;;;24.83;53.75;99737.31;5030745;28;20210;-83
2023/07/12 01:19:32;;;;;;;7.38;5.00;;;;;;;24.92;53.44;99749.66;5025127;28;20229;-83
2023/07/12 01:22:00;;;;;;;5.57;4.72;;;;;;;25.04;52.85;99732.69;5026221;28;20210;-83
2023/07/12 01:24:31;;;;;;;5.18;4.63;;;;;;;25.15;53.11;99743.78;5030040;28;20225;-84
2023/07/12 01:27:00;;;;;;;6.68;5.00;;;;;;;25.23;52.75;99748.16;5036885;28;20206;-83
2023/07/12 01:29:29;;;;;;;7.32;4.70;;;;;;;25.29;52.63;99752.75;5030871;28;20225;-84
2023/07/12 01:31:56;;;;;;;5.35;4.25;;;;;;;25.34;52.58;99746.66;5031692;28;20213;-84
2023/07/12 01:34:24;;;;;;;6.30;4.90;;;;;;;25.37;52.50;99744.34;5031348;28;20221;-84
2023/07/12 01:36:51;;;;;;;6.40;5.00;;;;;;;25.40;52.91;99754.81;5032660;28;20624;-84
2023/07/12 01:39:18;;;;;;;6.82;4.43;;;;;;;25.49;52.94;99747.22;5026065;28;20237;-83
2023/07/12 01:41:45;;;;;;;5.30;4.80;;;;;;;25.50;52.62;99749.75;5031541;28;20572;-83
2023/07/12 01:44:11;;;;;;;7.63;4.57;;;;;;;25.52;52.73;99744.91;5032319;28;20388;-82
2023/07/12 01:46:38;;;;;;;5.65;3.95;;;;;;;25.55;52.98;99747.22;5030838;28;20216;-83
2023/07/12 01:49:04;;;;;;;7.35;4.53;;;;;;;25.58;53.05;99778.66;5028272;28;20218;-83
2023/07/12 01:51:31;;;;;;;4.95;4.55;;;;;;;25.58;53.48;99775.94;5032486;28;20213;-83
2023/07/12 01:53:57;;;;;;;4.88;4.43;;;;;;;25.58;53.76;99770.50;5030213;28;20225;-84
2023/07/12 01:56:25;;;;;;;5.50;4.90;;;;;;;25.54;54.53;99772.81;5024078;28;20661;-83
2023/07/12 01:58:52;;;;;;;6.97;4.35;;;;;;;25.51;54.61;99778.69;5030380;28;20222;-83
2023/07/12 02:01:19;;;;;;;9.55;4.78;;;;;;;25.45;55.20;99787.72;5027671;28;20198;-83
2023/07/12 02:03:45;;;;;;;7.13;4.82;;;;;;;25.40;54.97;99808.50;5027402;28;20886;-83
2023/07/12 02:06:12;;;;;;;9.30;5.95;;;;;;;25.30;55.87;99802.63;5030258;28;20681;-83
2023/07/12 02:08:38;;;;;;;8.93;5.82;;;;;;;25.16;57.04;99827.19;5028496;28;20221;-84
2023/07/12 02:11:05;;;;;;;6.95;5.60;;;;;;;24.98;58.49;99839.78;5024437;28;20202;-82
2023/07/12 02:13:32;;;;;;;9.95;4.78;;;;;;;24.78;59.59;99856.09;5033273;28;20209;-82
2023/07/12 02:15:59;;;;;;;6.90;4.78;;;;;;;24.53;60.68;99851.25;5030112;28;20213;-82
2023/07/12 02:18:25;;;;;;;5.85;4.78;;;;;;;24.23;62.44;99858.91;5026224;28;20230;-83
2023/07/12 02:20:52;;;;;;;5.72;4.68;;;;;;;23.98;63.15;99863.19;5031822;28;20210;-82
2023/07/12 02:23:19;;;;;;;5.45;4.82;;;;;;;23.76;64.00;99876.06;5032626;28;20202;-83
2023/07/12 02:25:45;;;;;;;8.55;5.03;;;;;;;23.54;65.23;99888.88;5031491;28;20671;-83
2023/07/12 02:28:12;;;;;;;7.28;5.43;;;;;;;23.33;66.44;99891.63;5032554;28;20217;-83
2023/07/12 02:30:43;;;;;;;7.22;5.10;;;;;;;23.14;67.44;99895.03;5033910;28;20209;-82
2023/07/12 02:33:10;;;;;;;6.90;5.28;;;;;;;22.93;68.62;99878.78;5026758;28;20195;-83
2023/07/12 02:35:40;;;;;;;7.80;5.40;;;;;;;22.70;69.78;99879.78;5031720;28;20257;-82
2023/07/12 02:38:07;;;;;;;7.25;5.05;;;;;;;22.50;70.69;99871.44;5032753;28;20201;-84
2023/07/12 02:40:34;;;;;;;8.38;5.30;;;;;;;22.37;71.61;99874.03;5033470;28;20625;-82
2023/07/12 02:43:00;;;;;;;7.00;5.35;;;;;;;22.25;72.43;99875.53;5034393;28;20198;-83
2023/07/12 02:45:27;;;;;;;8.38;5.63;;;;;;;22.10;73.27;99862.03;5027495;28;20207;-82
2023/07/12 02:47:55;;;;;;;7.68;5.15;;;;;;;22.01;73.83;99863.19;5025657;28;20781;-83
2023/07/12 02:50:21;;;;;;;7.90;5.05;;;;;;;21.91;74.56;99870.72;5026413;28;20227;-83
2023/07/12 02:52:50;;;;;;;8.48;5.40;;;;;;;21.82;75.19;99888.97;5027534;28;20248;-82
2023/07/12 02:55:16;;;;;;;6.88;4.97;;;;;;;21.75;75.65;99892.59;5031260;28;20221;-82
2023/07/12 02:57:43;;;;;;;6.93;5.25;;;;;;;21.68;76.06;99897.06;5032879;28;20564;-83
2023/07/12 03:00:11;;;;;;;7.50;4.80;;;;;;;21.60;76.67;99892.59;5024825;28;20218;-83
2023/07/12 03:02:38;;;;;;;5.82;4.93;;;;;;;21.52;77.05;99898.09;5029296;28;20213;-82
2023/07/12 03:05:06;;;;;;;5.75;5.03;;;;;;;21.47;77.77;99892.44;5028102;28;20717;-84
2023/07/12 03:07:34;;;;;;;8.93;5.00;;;;;;;21.41;78.13;99895.88;5033750;28;20214;-83
2023/07/12 03:10:01;;;;;;;7.20;4.88;;;;;;;21.37;78.30;99897.25;5030781;28;20233;-82
2023/07/12 03:12:28;;;;;;;7.43;4.97;;;;;;;21.30;78.82;99894.47;5033000;28;20197;-82
2023/07/12 03:14:57;;;;;;;5.65;4.78;;;;;;;21.25;79.15;99915.00;5028650;28;20705;-83
2023/07/12 03:17:23;;;;;;;4.97;4.50;;;;;;;21.19;79.48;99902.13;5033209;28;20201;-83
2023/07/12 03:19:50;;;;;;;6.25;5.38;;;;;;;21.15;79.79;99916.03;5026472;28;20229;-83
2023/07/12 03:22:18;;;;;;;5.55;4.43;;;;;;;21.08;80.17;99911.56;5033415;28;20205;-83
2023/07/12 03:24:44;;;;;;;6.43;5.03;;;;;;;21.05;80.38;99926.28;5028768;28;20217;-83
2023/07/12 03:27:11;;;;;;;4.97;4.57;;;;;;;21.02;80.85;99920.41;5032759;28;20209;-83
2023/07/12 03:29:37;;;;;;;5.65;4.82;;;;;;;21.01;81.12;99918.72;5031260;28;20624;-84
2023/07/12 03:32:05;;;;;;;5.40;4.60;;;;;;;20.97;81.39;99928.22;5033447;28;20692;-82
2023/07/12 03:34:32;;;;;;;6.83;4.63;;;;;;;20.96;81.61;99931.97;5029506;28;20255;-82
2023/07/12 03:36:59;;;;;;;5.80;4.40;;;;;;;20.94;81.96;99928.59;5023923;28;20231;-82
2023/07/12 03:39:27;;;;;;;4.80;4.40;;;;;;;20.93;82.17;99944.00;5026702;28;20711;-83
2023/07/12 03:41:53;;;;;;;5.70;4.37;;;;;;;20.92;82.29;99949.59;5034083;28;20206;-82
2023/07/12 03:44:20;;;;;;;7.00;4.13;;;;;;;20.90;82.62;99941.66;5030543;28;20209;-83
2023/07/12 03:46:46;;;;;;;5.80;5.03;;;;;;;20.89;82.67;99936.41;5026759;28;20208;-83
2023/07/12 03:49:12;;;;;;;4.77;3.93;;;;;;;20.89;82.74;99942.66;5027160;28;20232;-85
2023/07/12 03:51:39;;;;;;;4.53;4.00;;;;;;;20.88;82.53;99950.97;5024838;28;20214;-84
2023/07/12 03:54:05;;;;;;;5.47;3.83;;;;;;;20.85;82.74;99962.16;5028905;28;20209;-83
2023/07/12 03:56:33;;;;;;;4.27;3.63;;;;;;;20.84;82.73;99966.72;5032626;28;20388;-85
2023/07/12 03:59:00;;;;;;;4.47;3.10;;;;;;;20.81;82.86;99956.25;5025969;28;20225;-84
2023/07/12 04:01:26;;;;;;;5.50;3.37;;;;;;;20.80;82.85;99957.28;5030595;28;20209;-83
2023/07/12 04:03:53;;;;;;;5.00;3.70;;;;;;;20.79;83.02;99969.13;5025374;28;20704;-83
2023/07/12 04:06:19;;;;;;;3.23;2.80;;;;;;;20.76;82.90;99981.16;5028902;28;20770;-84
2023/07/12 04:08:45;;;;;;;6.73;2.60;;;;;;;20.74;82.95;99994.03;5031230;28;20231;-84
2023/07/12 04:11:25;;;;;;;4.20;2.60;;;;;;;20.72;82.95;99997.94;5030645;28;20208;-84
2023/07/12 04:13:53;;;;;;;5.60;2.40;;;;;;;20.69;82.82;99999.13;5030014;28;20199;-82
2023/07/12 04:16:20;;;;;;;4.13;2.20;;;;;;;20.67;82.86;100014.69;5027621;28;20226;-82
2023/07/12 04:18:46;;;;;;;2.85;2.47;;;;;;;20.66;83.04;100004.88;5031032;28;20229;-84
2023/07/12 04:21:13;;;;;;;3.87;2.70;;;;;;;20.66;83.09;100012.16;5030431;28;20211;-82
2023/07/12 04:23:39;;;;;;;3.73;2.30;;;;;;;20.64;83.24;100004.22;5028858;28;20208;-83
2023/07/12 04:26:07;;;;;;;3.03;2.60;;;;;;;20.66;83.40;100015.72;5030355;28;20197;-83
2023/07/12 04:28:38;;;;;;;4.03;2.17;;;;;;;20.68;83.70;100023.66;5030717;28;20228;-82
2023/07/12 04:31:10;;;;;;;3.97;2.70;;;;;;;20.68;83.70;100031.78;5029863;28;20735;-82
2023/07/12 04:33:36;;;;;;;2.72;2.53;;;;;;;20.69;83.59;100039.72;5028189;28;20198;-83
2023/07/12 04:36:07;;;;;;;3.17;2.20;;;;;;;20.68;83.74;100058.81;5029051;28;20222;-83
2023/07/12 04:38:33;;;;;;;2.83;2.17;;;;;;;20.68;83.96;100053.41;5030766;28;20232;-83
2023/07/12 04:41:00;;;;;;;3.25;2.10;;;;;;;20.69;84.08;100060.50;5029770;28;20336;-83
2023/07/12 04:43:28;;;;;;;2.67;2.47;;;;;;;20.69;84.34;100055.94;5029446;28;20676;-82
2023/07/12 04:45:55;;;;;;;3.63;2.75;;;;;;;20.70;84.37;100052.22;5030741;28;20211;-83
2023/07/12 04:48:24;;;;;;;3.13;2.20;;;;;;;20.72;84.36;100054.75;5030163;28;20230;-86
2023/07/12 04:50:51;;;;;;;3.10;2.30;;;;;;;20.72;84.62;100054.75;5030886;28;20593;-84
2023/07/12 04:53:18;;;;;;;3.47;2.63;;;;;;;20.72;84.65;100044.78;5027671;28;20206;-83
2023/07/12 04:55:47;;;;;;;5.70;2.90;;;;;;;20.73;84.78;100030.22;5031531;28;20228;-82
2023/07/12 04:58:14;;;;;;;3.10;2.30;;;;;;;20.75;84.68;100032.75;5030731;28;20292;-82
2023/07/12 05:00:41;;;;;;;3.63;2.40;;;;;;;20.76;84.88;100058.81;5028763;28;20204;-82
2023/07/12 05:03:07;;;;;;;3.43;2.77;;;;;;;20.79;84.68;100078.22;5030329;28;20200;-83
2023/07/12 05:05:37;;;;;;;4.63;2.60;;;;;;;20.82;84.80;100095.13;5023926;28;20585;-82
2023/07/12 05:08:05;;;;;;;3.67;2.40;;;;;;;20.82;84.78;100087.84;5030266;28;20200;-83
2023/07/12 05:10:32;;;;;;;3.40;2.47;;;;;;;20.83;84.81;100099.50;5030116;28;20204;-82
2023/07/12 05:12:59;;;;;;;3.10;2.00;;;;;;;20.82;84.79;100103.25;5027040;28;20981;-82
2023/07/12 05:15:25;;;;;;;4.20;2.17;;;;;;;20.80;85.11;100093.44;5028338;28;20702;-83
2023/07/12 05:17:52;;;;;;;3.83;2.00;;;;;;;20.80;85.00;100098.00;5030850;28;20217;-83
2023/07/12 05:20:18;;;;;;;3.23;2.07;;;;;;;20.82;84.87;100106.78;5031276;28;20687;-82
2023/07/12 05:22:47;;;;;;;2.30;1.73;;;;;;;20.80;84.79;100108.81;5029708;28;20214;-83
2023/07/12 05:25:14;;;;;;;2.50;1.40;;;;;;;20.80;84.47;100116.94;5028459;28;20208;-82
2023/07/12 05:27:41;;;;;;;1.73;1.30;;;;;;;20.74;82.88;100120.38;5028910;28;20224;-82
2023/07/12 05:30:09;;;;;;;2.13;1.10;;;;;;;20.69;81.79;100120.88;5027431;28;20221;-82
2023/07/12 05:32:35;;;;;;;2.53;1.10;;;;;;;20.65;80.65;100129.53;5029506;28;20294;-83
2023/07/12 05:35:03;;;;;;;1.10;0.90;;;;;;;20.62;79.90;100133.41;5028734;28;20229;-83
2023/07/12 05:37:29;;;;;;;2.33;0.90;;;;;;;20.59;79.46;100125.69;5030992;28;20860;-84
2023/07/12 05:39:57;;;;;;;1.43;1.03;;;;;;;20.60;78.88;100121.09;5030477;28;20229;-84
2023/07/12 05:42:24;;;;;;;2.30;1.20;;;;;;;20.58;78.76;100105.06;5022391;28;20211;-83
2023/07/12 05:44:50;;;;;;;1.30;0.97;;;;;;;20.59;78.17;100108.59;5032373;28;20576;-81
2023/07/12 05:47:17;;;;;;;2.47;1.20;;;;;;;20.62;77.82;100119.88;5029772;28;20207;-81
2023/07/12 05:49:43;;;;;;;1.40;1.30;;;;;;;20.64;77.84;100134.09;5029896;28;20235;-81
2023/07/12 05:52:12;;;;;;;1.93;1.20;;;;;;;20.66;77.23;100131.22;5029189;28;20590;-82
2023/07/12 05:54:40;;;;;;;1.23;1.10;;;;;;;20.66;76.42;100123.94;5029144;28;20219;-81
2023/07/12 05:57:08;;;;;;;1.70;1.00;;;;;;;20.67;75.97;100138.31;5033806;28;20196;-81
2023/07/12 05:59:34;;;;;;;0.90;0.80;;;;;;;20.69;75.73;100152.53;5033984;28;20595;-81
2023/07/12 06:02:01;;;;;;;1.63;0.90;;;;;;;20.74;75.31;100163.66;5033280;28;20206;-82
2023/07/12 06:04:27;;;;;;;2.97;1.13;;;;;;;20.76;74.37;100173.31;5032047;28;20213;-82
2023/07/12 06:06:54;;;;;;;2.33;1.10;;;;;;;20.80;73.31;100171.06;5032808;28;20216;-82
2023/07/12 06:09:20;;;;;;;3.37;1.17;;;;;;;20.83;72.46;100164.47;5033909;28;20224;-82
2023/07/12 06:11:47;;;;;;;1.20;0.93;;;;;;;20.90;72.06;100166.31;5031199;28;20208;-83
2023/07/12 06:14:14;;;;;;;0.90;0.85;;;;;;;20.99;71.17;100161.69;5034347;28;20209;-81
2023/07/12 06:16:42;;;;;;;2.05;1.20;;;;;;;21.06;70.74;100147.28;5031178;28;20222;-80
2023/07/12 06:19:09;;;;;;;2.17;0.73;;;;;;;21.18;70.08;100141.47;5031356;28;20225;-81
2023/07/12 06:21:35;;;;;;;1.42;0.95;;;;;;;21.29;69.78;100151.94;5033806;28;20208;-83
2023/07/12 06:24:02;;;;;;;0.73;0.73;;;;;;;21.40;69.47;100141.53;5026181;28;20213;-81
2023/07/12 06:26:28;;;;;;;2.17;0.93;;;;;;;21.54;68.26;100141.78;5031100;28;20325;-81
2023/07/12 06:28:55;;;;;;;2.15;0.90;;;;;;;21.58;67.04;100137.69;5033291;28;20225;-81
2023/07/12 06:31:23;;;;;;;1.25;0.90;;;;;;;21.62;66.26;100139.03;5026636;28;20202;-80
2023/07/12 06:33:49;;;;;;;1.38;0.80;;;;;;;21.66;66.57;100124.09;5033179;28;20206;-81
2023/07/12 06:36:16;;;;;;;3.85;0.98;;;;;;;21.74;66.17;100132.16;5029300;28;20254;-81
2023/07/12 06:38:42;;;;;;;1.40;0.60;;;;;;;21.83;65.79;100133.78;5032542;28;20226;-81
2023/07/12 06:41:09;;;;;;;1.05;0.70;;;;;;;21.94;65.33;100116.22;5029785;28;20206;-82
2023/07/12 06:43:35;;;;;;;1.05;0.80;;;;;;;22.06;64.48;100104.78;5032794;28;20206;-81
2023/07/12 06:46:02;;;;;;;0.60;0.60;;;;;;;22.22;62.79;100100.19;5033128;28;20643;-81
2023/07/12 06:48:30;;;;;;;1.10;0.70;;;;;;;22.31;62.55;100109.97;5032808;28;20218;-81
2023/07/12 06:50:56;;;;;;;1.38;0.57;;;;;;;22.45;61.22;100114.53;5029082;28;20207;-81
2023/07/12 06:53:23;;;;;;;1.85;0.70;;;;;;;22.56;61.10;100105.09;5033135;28;20198;-81
2023/07/12 06:55:51;;;;;;;1.02;0.50;;;;;;;22.69;60.85;100116.13;5028747;28;20218;-82
2023/07/12 06:58:18;;;;;;;1.55;0.50;;;;;;;22.82;60.12;100135.34;5028738;28;20202;-82
2023/07/12 07:00:45;;;;;;;1.35;0.50;;;;;;;22.99;59.69;100130.53;5027783;28;20207;-82
2023/07/12 07:03:13;;;;;;;0.70;0.70;;;;;;;23.18;59.06;100138.09;5032662;28;20213;-82
2023/07/12 07:05:43;;;;;;;2.83;0.60;;;;;;;23.32;57.26;100148.06;5030146;28;20213;-81
2023/07/12 07:08:11;;;;;;;0.80;0.70;;;;;;;23.42;56.19;100147.78;5034459;28;20208;-81
2023/07/12 07:10:38;;;;;;;2.80;0.80;;;;;;;23.54;56.57;100154.41;5027302;28;20242;-83
2023/07/12 07:13:04;;;;;;;0.85;0.70;;;;;;;23.67;55.82;100161.88;5026048;28;20210;-82
2023/07/12 07:15:31;;;;;;;1.23;0.60;;;;;;;23.77;55.54;100162.41;5031636;28;20899;-82
2023/07/12 07:17:57;;;;;;;0.52;0.40;;;;;;;23.88;54.44;100154.56;5030927;28;20213;-81
2023/07/12 07:20:24;;;;;;;0.95;0.80;;;;;;;23.96;53.95;100142.72;5030066;28;20312;-82
2023/07/12 07:22:52;;;;;;;0.88;0.60;;;;;;;24.04;53.82;100150.72;5030153;28;20209;-81
2023/07/12 07:25:19;;;;;;;1.05;0.60;;;;;;;24.07;52.57;100150.31;5025636;28;20198;-81
2023/07/12 07:27:45;;;;;;;1.08;0.40;;;;;;;24.19;53.18;100169.66;5031222;28;20210;-82
2023/07/12 07:30:13;;;;;;;0.80;0.47;;;;;;;24.33;52.41;100162.50;5030473;28;20222;-80
2023/07/12 07:32:40;;;;;;;2.42;0.82;;;;;;;24.44;51.42;100161.94;5032140;28;20216;-82
2023/07/12 07:35:07;;;;;;;1.00;0.50;;;;;;;24.54;50.90;100154.28;5026664;28;20217;-81
2023/07/12 07:37:33;;;;;;;0.70;0.60;;;;;;;24.63;50.71;100160.41;5021532;28;20289;-80
2023/07/12 07:40:01;;;;;;;1.95;0.57;;;;;;;24.76;50.51;100169.47;5027512;28;20258;-80
2023/07/12 07:42:28;;;;;;;1.45;0.50;;;;;;;24.86;49.59;100166.41;5030896;28;20336;-81
2023/07/12 07:44:54;;;;;;;0.98;0.50;;;;;;;24.95;49.52;100158.91;5031494;28;20486;-81
2023/07/12 07:47:21;;;;;;;1.88;0.55;;;;;;;25.03;48.91;100161.50;5032028;28;20206;-82
2023/07/12 07:49:47;;;;;;;0.90;0.80;;;;;;;24.98;47.69;100167.53;5031465;28;20230;-81
2023/07/12 07:52:14;;;;;;;1.42;0.55;;;;;;;24.92;47.67;100166.41;5031759;28;20289;-81
2023/07/12 07:54:40;;;;;;;1.17;0.50;;;;;;;24.83;47.57;100170.38;5031449;28;20213;-81
2023/07/12 07:57:08;;;;;;;1.40;0.50;;;;;;;24.79;47.38;100166.34;5031922;28;20230;-81
2023/07/12 07:59:35;;;;;;;1.73;0.63;;;;;;;24.84;48.29;100171.22;5028199;28;20247;-83
2023/07/12 08:02:02;;;;;;;0.55;0.50;;;;;;;24.89;47.57;100166.84;5028172;28;20210;-84
2023/07/12 08:04:31;;;;;;;0.90;0.40;;;;;;;24.99;47.97;100160.22;5028708;28;20669;-84
2023/07/12 08:06:57;;;;;;;0.80;0.50;;;;;;;25.05;47.78;100179.31;5028406;28;20587;-84
2023/07/12 08:09:24;;;;;;;0.60;0.50;;;;;;;25.12;48.17;100182.06;5031377;28;20225;-84
2023/07/12 08:11:50;;;;;;;1.52;0.68;;;;;;;25.19;48.10;100182.94;5028826;28;20224;-84
2023/07/12 08:14:20;;;;;;;1.63;0.68;;;;;;;25.28;48.14;100195.31;5031819;28;20197;-84
2023/07/12 08:16:48;;;;;;;1.70;0.70;;;;;;;25.38;47.26;100168.53;5027607;28;20249;-85
2023/07/12 08:19:15;;;;;;;2.17;0.70;;;;;;;25.43;47.59;100198.78;5029690;28;20222;-85
2023/07/12 08:21:43;;;;;;;0.93;0.60;;;;;;;25.38;46.52;100203.13;5031752;28;20206;-84
2023/07/12 08:24:09;;;;;;;1.75;0.60;;;;;;;25.24;46.82;100202.25;5027517;28;20210;-85
2023/07/12 08:26:36;;;;;;;1.38;0.50;;;;;;;25.09;46.88;100210.53;5031147;28;20568;-85
2023/07/12 08:29:03;;;;;;;3.30;0.65;;;;;;;24.92;47.57;100218.19;5029284;28;20242;-84
2023/07/12 08:31:31;;;;;;;1.65;0.70;;;;;;;24.80;47.70;100229.84;5031292;28;20619;-84
2023/07/12 08:33:59;;;;;;;1.05;0.50;;;;;;;24.67;48.11;100238.78;5029886;28;20206;-85
2023/07/12 08:36:26;;;;;;;2.10;0.88;;;;;;;24.50;48.66;100242.81;5030259;28;20317;-84
2023/07/12 08:38:53;;;;;;;0.70;0.70;;;;;;;24.43;49.49;100247.38;5028130;28;20226;-85
2023/07/12 08:41:24;;;;;;;2.35;0.75;;;;;;;24.34;49.97;100243.13;5031113;28;20198;-83
2023/07/12 08:43:52;;;;;;;1.33;0.82;;;;;;;24.28;50.32;100246.59;5029828;28;20205;-84
2023/07/12 08:46:22;;;;;;;1.67;0.80;;;;;;;24.24;50.25;100243.44;5030427;28;20209;-85
2023/07/12 08:48:54;;;;;;;2.42;1.15;;;;;;;24.18;50.24;100245.00;5029391;28;20225;-84
2023/07/12 08:51:26;;;;;;;1.83;0.90;;;;;;;24.12;49.47;100250.41;5028170;28;20226;-84
2023/07/12 08:53:53;;;;;;;2.00;1.20;;;;;;;24.02;49.38;100252.59;5028519;28;20602;-85
2023/07/12 08:56:20;;;;;;;1.60;1.30;;;;;;;23.95;49.52;100254.41;5028140;28;20575;-84
2023/07/12 08:58:49;;;;;;;1.73;1.30;;;;;;;23.82;49.04;100242.38;5026322;28;20232;-84
2023/07/12 09:01:21;;;;;;;1.50;1.40;;;;;;;23.74;49.71;100258.78;5023652;28;20206;-84
2023/07/12 09:03:48;;;;;;;1.73;1.40;;;;;;;23.75;50.31;100259.63;5031216;28;20297;-83
2023/07/12 09:06:17;;;;;;;2.55;1.50;;;;;;;23.77;50.63;100263.84;5031106;28;20197;-83
2023/07/12 09:08:49;;;;;;;1.50;1.27;;;;;;;23.80;51.00;100262.63;5029961;28;20670;-84
2023/07/12 09:11:17;;;;;;;2.60;1.42;;;;;;;23.78;50.75;100259.25;5029962;28;20194;-83
2023/07/12 09:13:46;;;;;;;2.40;1.73;;;;;;;23.72;50.63;100255.41;5026645;28;20671;-84
2023/07/12 09:16:23;;;;;;;1.40;1.23;;;;;;;23.73;51.11;100257.09;5029522;28;20268;-84
2023/07/12 09:18:53;;;;;;;2.05;1.63;;;;;;;23.71;51.11;100264.59;5025297;28;20294;-84
2023/07/12 09:21:24;;;;;;;2.58;1.85;;;;;;;23.69;51.03;100261.22;5028634;28;20657;-85
2023/07/12 09:23:53;;;;;;;1.67;1.58;;;;;;;23.68;50.71;100275.03;5030922;28;20202;-84
2023/07/12 09:26:24;;;;;;;2.22;1.98;;;;;;;23.65;50.21;100265.38;5028912;28;20194;-83
2023/07/12 09:28:52;;;;;;;2.33;1.95;;;;;;;23.66;50.38;100266.22;5028131;28;20232;-84
2023/07/12 09:31:23;;;;;;;2.17;1.98;;;;;;;23.68;50.31;100256.81;5021436;28;20207;-86
2023/07/12 09:33:54;;;;;;;2.15;1.90;;;;;;;23.73;49.64;100280.75;5030374;28;20225;-84
2023/07/12 09:36:22;;;;;;;1.90;1.70;;;;;;;23.72;49.94;100262.72;5024427;28;20218;-84
2023/07/12 09:38:50;;;;;;;1.67;1.58;;;;;;;23.76;50.18;100280.34;5027658;28;20236;-84
2023/07/12 09:41:20;;;;;;;1.63;1.52;;;;;;;23.74;50.35;100282.41;5027301;28;20209;-83
2023/07/12 09:43:53;;;;;;;1.88;1.77;;;;;;;23.72;50.23;100276.31;5025023;28;20205;-84
2023/07/12 09:46:33;;;;;;;1.98;1.85;;;;;;;23.72;50.48;100284.47;5024137;28;20205;-84
2023/07/12 09:49:04;;;;;;;3.63;2.38;;;;;;;23.79;50.62;100279.97;5028394;28;20234;-84
2023/07/12 09:51:39;;;;;;;2.65;2.40;;;;;;;23.89;50.73;100278.63;5030566;28;20229;-84
2023/07/12 09:54:26;;;;;;;2.47;2.28;;;;;;;24.05;51.16;100288.41;5030437;28;20202;-84
2023/07/12 09:56:56;;;;;;;2.97;2.35;;;;;;;24.20;50.54;100293.78;5023466;28;20230;-82
2023/07/12 09:59:36;;;;;;;2.70;2.50;;;;;;;24.22;49.99;100297.16;5024037;28;20569;-83
2023/07/12 10:02:16;;;;;;;2.70;2.50;;;;;;;24.21;49.62;100300.94;5019840;28;20202;-83
2023/07/12 10:04:48;;;;;;;2.40;2.20;;;;;;;24.20;49.64;100299.25;5028201;28;20690;-83
2023/07/12 10:07:32;;;;;;;2.08;1.98;;;;;;;24.23;49.72;100294.28;5028777;28;20209;-84
2023/07/12 10:09:59;;;;;;;2.20;1.98;;;;;;;24.21;48.64;100292.75;5023400;28;20225;-84
2023/07/12 10:12:32;;;;;;;1.83;1.73;;;;;;;24.10;47.82;100294.13;5021740;28;20214;-83
2023/07/12 10:15:00;;;;;;;2.22;2.03;;;;;;;24.04;48.08;100302.22;5025560;28;20300;-83
2023/07/12 10:17:33;;;;;;;2.28;1.95;;;;;;;24.05;48.76;100299.28;5028980;28;20720;-84
2023/07/12 10:20:02;;;;;;;2.13;1.92;;;;;;;24.14;48.59;100300.03;5023902;28;20227;-84
2023/07/12 10:22:35;;;;;;;1.88;1.77;;;;;;;24.15;48.35;100293.56;5030946;28;20206;-85
2023/07/12 10:25:06;;;;;;;2.15;1.90;;;;;;;24.13;48.49;100296.47;5029950;28;20238;-83
2023/07/12 10:27:38;;;;;;;3.47;2.38;;;;;;;24.12;48.31;100283.91;5031767;28;20202;-84
2023/07/12 10:30:10;;;;;;;2.60;2.30;;;;;;;24.07;48.65;100289.06;5027189;28;20229;-84
2023/07/12 10:32:42;;;;;;;2.00;1.90;;;;;;;24.03;48.39;100295.94;5028658;28;20210;-83
2023/07/12 10:35:18;;;;;;;3.13;2.25;;;;;;;24.04;48.93;100292.16;5024594;28;20201;-84
2023/07/12 10:37:53;;;;;;;2.58;2.28;;;;;;;24.07;49.15;100290.94;5021077;28;20218;-84
2023/07/12 10:40:26;;;;;;;2.05;1.85;;;;;;;24.12;48.41;100300.22;5037415;28;20236;-84
2023/07/12 10:42:57;;;;;;;2.53;2.08;;;;;;;24.20;48.42;100297.34;5032511;28;20209;-84
2023/07/12 10:45:26;;;;;;;2.58;1.95;;;;;;;24.27;48.05;100293.91;5028755;28;20209;-84
2023/07/12 10:47:54;;;;;;;4.18;2.40;;;;;;;24.36;48.16;100300.91;5030476;28;20209;-84
2023/07/12 10:50:24;;;;;;;2.30;1.80;;;;;;;24.47;48.05;100287.63;5033522;28;20222;-85
2023/07/12 10:53:10;;;;;;;2.47;2.20;;;;;;;24.55;47.74;100305.69;5027876;28;20211;-84
2023/07/12 10:55:42;;;;;;;2.70;2.17;;;;;;;24.54;46.53;100293.13;5033683;28;20208;-84
2023/07/12 10:58:46;;;;;;;2.17;1.85;;;;;;;24.56;46.64;100299.19;5032367;28;20321;-85
2023/07/12 11:01:39;;;;;;;3.20;2.05;;;;;;;24.60;46.61;100303.22;5037267;28;20205;-84
2023/07/12 11:04:11;;;;;;;2.13;1.85;;;;;;;24.68;46.64;100308.53;5024505;28;20226;-84
2023/07/12 11:06:55;;;;;;;2.88;2.33;;;;;;;24.79;46.87;100307.97;5029266;28;20213;-84
2023/07/12 11:09:26;;;;;;;2.38;2.17;;;;;;;24.88;46.67;100312.25;5032754;28;20637;-85
2023/07/12 11:12:05;;;;;;;2.88;2.05;;;;;;;24.92;46.20;100305.34;5028457;28;20237;-84
2023/07/12 11:14:48;;;;;;;2.25;2.05;;;;;;;24.98;46.58;100314.66;5029703;28;20210;-83
2023/07/12 11:17:20;;;;;;;2.40;2.20;;;;;;;25.01;46.47;100311.53;5032602;28;20617;-83
2023/07/12 11:20:03;;;;;;;3.22;2.13;;;;;;;25.03;46.21;100312.19;5033783;28;20226;-83
2023/07/12 11:22:52;;;;;;;3.22;1.90;;;;;;;25.05;46.40;100309.25;5036453;28;20206;-83
2023/07/12 11:25:29;;;;;;;2.00;1.80;;;;;;;25.04;46.59;100310.31;5035139;28;20195;-83
2023/07/12 11:27:58;;;;;;;2.30;2.10;;;;;;;25.01;46.44;100313.41;5029123;28;20209;-82
2023/07/12 11:30:39;;;;;;;3.88;2.53;;;;;;;25.02;46.12;100312.38;5034581;28;20690;-82
2023/07/12 11:33:16;;;;;;;1.80;1.70;;;;;;;25.05;45.41;100310.09;5024199;28;20200;-81
2023/07/12 11:35:47;;;;;;;3.45;1.98;;;;;;;25.20;45.97;100310.00;5035505;28;20202;-82